
Distance (Route):
Temperature : -8.4°C
Humidity : 49.0%
Pressure : 0hPa| Receiver | Frames | First received | Last received |
|---|---|---|---|
| LZ4TU-5 | 102 | 2026-08-30 11:25:39 | 2026-08-30 13:05:53 |
| Receiver | Date | Latitude | Longitude | Direction | Speed | Altitude | Climb | Temperature | Humidity | Pressure | Voltage | Killtimer | Uptime | BKT | XDATA |
|---|---|---|---|---|---|---|---|---|---|---|---|---|---|---|---|
| LZ4TU-5 | 2026-08-30 13:05:53 | 43.25166 | 22.33403 | 120° | 37km/h | 5844m | -16.6m/s | -8.4°C | 49.0% | 0hPa | 0V | 00:00:00 | 00:00:00 | 00:00:00 | |
| LZ4TU-5 | 2026-08-30 13:05:48 | 43.25189 | 22.33347 | 120° | 40km/h | 5926m | -16.5m/s | -8.9°C | 47.0% | 0hPa | 0V | 00:00:00 | 00:00:00 | 00:00:00 | |
| LZ4TU-5 | 2026-08-30 13:05:43 | 43.25214 | 22.33287 | 122° | 40km/h | 6002m | -16.4m/s | -9.3°C | 43.3% | 0hPa | 0V | 00:00:00 | 00:00:00 | 00:00:00 | |
| LZ4TU-5 | 2026-08-30 13:04:23 | 43.25646 | 22.32384 | 114° | 42km/h | 7365m | -17.5m/s | -18.2°C | 37.2% | 0hPa | 0V | 00:00:00 | 00:00:00 | 00:00:00 | |
| LZ4TU-5 | 2026-08-30 13:04:18 | 43.25666 | 22.32318 | 113° | 42km/h | 7453m | -17.2m/s | -18.7°C | 31.5% | 0hPa | 0V | 00:00:00 | 00:00:00 | 00:00:00 | |
| LZ4TU-5 | 2026-08-30 12:59:50 | 43.26847 | 22.28461 | 104° | 58km/h | 13044m | -25.4m/s | -57.1°C | 7.7% | 0hPa | 0V | 00:00:00 | 00:00:00 | 00:00:00 | |
| LZ4TU-5 | 2026-08-30 12:59:45 | 43.26871 | 22.28351 | 104° | 60km/h | 13168m | -25.7m/s | -57.3°C | 6.7% | 0hPa | 0V | 00:00:00 | 00:00:00 | 00:00:00 | |
| LZ4TU-5 | 2026-08-30 12:58:08 | 43.27206 | 22.27010 | 103° | 44km/h | 15955m | -32.2m/s | -59.0°C | 0.0% | 0hPa | 0V | 00:00:00 | 00:00:00 | 00:00:00 | |
| LZ4TU-5 | 2026-08-30 12:58:03 | 43.27216 | 22.26935 | 98° | 44km/h | 16120m | -32.5m/s | -59.0°C | 0.0% | 0hPa | 0V | 00:00:00 | 00:00:00 | 00:00:00 | |
| LZ4TU-5 | 2026-08-30 12:51:10 | 43.26213 | 22.26466 | 84° | 31km/h | 31029m | 8.7m/s | -40.3°C | 1.8% | 0hPa | 0V | 00:00:00 | 00:00:00 | 00:00:00 | |
| LZ4TU-5 | 2026-08-30 12:49:06 | 43.25180 | 22.26493 | 341° | 33km/h | 30165m | 6.9m/s | -39.7°C | 1.5% | 0hPa | 0V | 00:00:00 | 00:00:00 | 00:00:00 | |
| LZ4TU-5 | 2026-08-30 12:49:01 | 43.25134 | 22.26529 | 346° | 42km/h | 30129m | 8.3m/s | -39.5°C | 1.4% | 0hPa | 0V | 00:00:00 | 00:00:00 | 00:00:00 | |
| LZ4TU-5 | 2026-08-30 12:48:56 | 43.25088 | 22.26536 | 323° | 33km/h | 30094m | 7.2m/s | -39.7°C | 1.4% | 0hPa | 0V | 00:00:00 | 00:00:00 | 00:00:00 | |
| LZ4TU-5 | 2026-08-30 12:46:40 | 43.24550 | 22.26852 | 289° | 18km/h | 29211m | 4.4m/s | -43.0°C | 1.4% | 0hPa | 0V | 00:00:00 | 00:00:00 | 00:00:00 | |
| LZ4TU-5 | 2026-08-30 12:46:35 | 43.24519 | 22.26851 | 360° | 37km/h | 29181m | 5.3m/s | -43.4°C | 1.5% | 0hPa | 0V | 00:00:00 | 00:00:00 | 00:00:00 | |
| LZ4TU-5 | 2026-08-30 12:44:29 | 43.23846 | 22.26876 | 20° | 49km/h | 28345m | 6.5m/s | -45.0°C | 1.3% | 0hPa | 0V | 00:00:00 | 00:00:00 | 00:00:00 | |
| LZ4TU-5 | 2026-08-30 12:44:24 | 43.23805 | 22.26855 | 37° | 22km/h | 28311m | 7.3m/s | -44.8°C | 1.3% | 0hPa | 0V | 00:00:00 | 00:00:00 | 00:00:00 | |
| LZ4TU-5 | 2026-08-30 12:42:20 | 43.23521 | 22.26617 | 53° | 24km/h | 27523m | 6.4m/s | -46.7°C | 1.0% | 0hPa | 0V | 00:00:00 | 00:00:00 | 00:00:00 | |
| LZ4TU-5 | 2026-08-30 12:42:15 | 43.23509 | 22.26581 | 124° | 26km/h | 27494m | 7.0m/s | -47.0°C | 1.0% | 0hPa | 0V | 00:00:00 | 00:00:00 | 00:00:00 | |
| LZ4TU-5 | 2026-08-30 12:39:45 | 43.23359 | 22.26667 | 186° | 9km/h | 26529m | 6.9m/s | -49.4°C | 1.1% | 0hPa | 0V | 00:00:00 | 00:00:00 | 00:00:00 | |
| LZ4TU-5 | 2026-08-30 12:39:40 | 43.23362 | 22.26660 | 90° | 16km/h | 26497m | 6.4m/s | -49.5°C | 1.1% | 0hPa | 0V | 00:00:00 | 00:00:00 | 00:00:00 | |
| LZ4TU-5 | 2026-08-30 12:39:36 | 43.23362 | 22.26650 | 184° | 13km/h | 26466m | 7.5m/s | -49.5°C | 1.2% | 0hPa | 0V | 00:00:00 | 00:00:00 | 00:00:00 | |
| LZ4TU-5 | 2026-08-30 12:37:42 | 43.23305 | 22.26467 | 322° | 7km/h | 25733m | 5.4m/s | -49.4°C | 1.0% | 0hPa | 0V | 00:00:00 | 00:00:00 | 00:00:00 | |
| LZ4TU-5 | 2026-08-30 12:37:37 | 43.23295 | 22.26472 | 0° | 0km/h | 25702m | 6.6m/s | -49.5°C | 1.0% | 0hPa | 0V | 00:00:00 | 00:00:00 | 00:00:00 | |
| LZ4TU-5 | 2026-08-30 12:35:13 | 43.22932 | 22.26610 | 318° | 26km/h | 24824m | 5.6m/s | -51.1°C | 0.8% | 0hPa | 0V | 00:00:00 | 00:00:00 | 00:00:00 | |
| LZ4TU-5 | 2026-08-30 12:35:09 | 43.22918 | 22.26630 | 296° | 9km/h | 24795m | 6.9m/s | -51.0°C | 0.8% | 0hPa | 0V | 00:00:00 | 00:00:00 | 00:00:00 | |
| LZ4TU-5 | 2026-08-30 12:33:12 | 43.22818 | 22.26950 | 244° | 15km/h | 24078m | 6.2m/s | -52.3°C | 0.7% | 0hPa | 0V | 00:00:00 | 00:00:00 | 00:00:00 | |
| LZ4TU-5 | 2026-08-30 12:33:07 | 43.22830 | 22.26957 | 116° | 16km/h | 24046m | 7.7m/s | -52.3°C | 0.7% | 0hPa | 0V | 00:00:00 | 00:00:00 | 00:00:00 | |
| LZ4TU-5 | 2026-08-30 12:31:20 | 43.22865 | 22.26946 | 291° | 11km/h | 23387m | 7.3m/s | -52.6°C | 0.7% | 0hPa | 0V | 00:00:00 | 00:00:00 | 00:00:00 | |
| LZ4TU-5 | 2026-08-30 12:31:15 | 43.22858 | 22.26977 | 258° | 29km/h | 23356m | 5.8m/s | -52.9°C | 0.8% | 0hPa | 0V | 00:00:00 | 00:00:00 | 00:00:00 | |
| LZ4TU-5 | 2026-08-30 12:29:27 | 43.22707 | 22.27263 | 272° | 37km/h | 22730m | 3.9m/s | -53.0°C | 0.7% | 0hPa | 0V | 00:00:00 | 00:00:00 | 00:00:00 | |
| LZ4TU-5 | 2026-08-30 12:29:22 | 43.22701 | 22.27287 | 309° | 5km/h | 22700m | 5.1m/s | -52.8°C | 0.7% | 0hPa | 0V | 00:00:00 | 00:00:00 | 00:00:00 | |
| LZ4TU-5 | 2026-08-30 12:27:01 | 43.22480 | 22.27427 | 318° | 4km/h | 21907m | 5.6m/s | -54.0°C | 0.7% | 0hPa | 0V | 00:00:00 | 00:00:00 | 00:00:00 | |
| LZ4TU-5 | 2026-08-30 12:26:58 | 43.22464 | 22.27425 | 351° | 26km/h | 21883m | 6.2m/s | -54.0°C | 0.7% | 0hPa | 0V | 00:00:00 | 00:00:00 | 00:00:00 | |
| LZ4TU-5 | 2026-08-30 12:25:01 | 43.22380 | 22.27589 | 335° | 9km/h | 21227m | 6.0m/s | -55.3°C | 0.6% | 0hPa | 0V | 00:00:00 | 00:00:00 | 00:00:00 | |
| LZ4TU-5 | 2026-08-30 12:24:56 | 43.22378 | 22.27597 | 103° | 5km/h | 21199m | 7.3m/s | -55.3°C | 0.5% | 0hPa | 0V | 00:00:00 | 00:00:00 | 00:00:00 | |
| LZ4TU-5 | 2026-08-30 12:22:48 | 43.22183 | 22.27658 | 20° | 9km/h | 20471m | 4.1m/s | -56.1°C | 0.7% | 0hPa | 0V | 00:00:00 | 00:00:00 | 00:00:00 | |
| LZ4TU-5 | 2026-08-30 12:22:43 | 43.22154 | 22.27669 | 327° | 29km/h | 20443m | 6.2m/s | -56.2°C | 0.8% | 0hPa | 0V | 00:00:00 | 00:00:00 | 00:00:00 | |
| LZ4TU-5 | 2026-08-30 12:20:56 | 43.21967 | 22.27923 | 358° | 15km/h | 19852m | 4.7m/s | -56.2°C | 0.8% | 0hPa | 0V | 00:00:00 | 00:00:00 | 00:00:00 | |
| LZ4TU-5 | 2026-08-30 12:20:51 | 43.21960 | 22.27913 | 47° | 4km/h | 19825m | 4.6m/s | -56.0°C | 0.8% | 0hPa | 0V | 00:00:00 | 00:00:00 | 00:00:00 | |
| LZ4TU-5 | 2026-08-30 12:19:03 | 43.21627 | 22.27928 | 10° | 26km/h | 19231m | 5.6m/s | -56.7°C | 0.8% | 0hPa | 0V | 00:00:00 | 00:00:00 | 00:00:00 | |
| LZ4TU-5 | 2026-08-30 12:18:58 | 43.21610 | 22.27942 | 281° | 11km/h | 19204m | 5.4m/s | -56.5°C | 0.7% | 0hPa | 0V | 00:00:00 | 00:00:00 | 00:00:00 | |
| LZ4TU-5 | 2026-08-30 12:17:08 | 43.21367 | 22.27533 | 8° | 9km/h | 18615m | 5.9m/s | -56.3°C | 1.4% | 0hPa | 0V | 00:00:00 | 00:00:00 | 00:00:00 | |
| LZ4TU-5 | 2026-08-30 12:17:04 | 43.21363 | 22.27535 | 66° | 7km/h | 18595m | 5.1m/s | -56.1°C | 1.4% | 0hPa | 0V | 00:00:00 | 00:00:00 | 00:00:00 | |
| LZ4TU-5 | 2026-08-30 12:15:13 | 43.21329 | 22.27320 | 67° | 16km/h | 18028m | 6.2m/s | -55.9°C | 1.6% | 0hPa | 0V | 00:00:00 | 00:00:00 | 00:00:00 | |
| LZ4TU-5 | 2026-08-30 12:15:08 | 43.21321 | 22.27297 | 91° | 9km/h | 18001m | 6.2m/s | -55.9°C | 0% | 0hPa | 0V | 00:00:00 | 00:00:00 | 00:00:00 | |
| LZ4TU-5 | 2026-08-30 12:13:19 | 43.21188 | 22.26577 | 61° | 13km/h | 17438m | 5.1m/s | -60.5°C | 1.9% | 0hPa | 0V | 00:00:00 | 00:00:00 | 00:00:00 | |
| LZ4TU-5 | 2026-08-30 12:13:14 | 43.21183 | 22.26555 | 58° | 7km/h | 17412m | 4.5m/s | -60.3°C | 1.9% | 0hPa | 0V | 00:00:00 | 00:00:00 | 00:00:00 | |
| LZ4TU-5 | 2026-08-30 12:11:29 | 43.21152 | 22.26585 | 157° | 11km/h | 16854m | 5.4m/s | -57.8°C | 2.0% | 0hPa | 0V | 00:00:00 | 00:00:00 | 00:00:00 | |
| LZ4TU-5 | 2026-08-30 12:11:24 | 43.21162 | 22.26592 | 215° | 16km/h | 16826m | 5.2m/s | -57.9°C | 2.1% | 0hPa | 0V | 00:00:00 | 00:00:00 | 00:00:00 | |
| LZ4TU-5 | 2026-08-30 12:09:42 | 43.21540 | 22.25924 | 97° | 46km/h | 16286m | 4.9m/s | -57.6°C | 2.5% | 0hPa | 0V | 00:00:00 | 00:00:00 | 00:00:00 | |
| LZ4TU-5 | 2026-08-30 12:09:38 | 43.21543 | 22.25864 | 99° | 40km/h | 16266m | 5.6m/s | -57.7°C | 2.5% | 0hPa | 0V | 00:00:00 | 00:00:00 | 00:00:00 | |
| LZ4TU-5 | 2026-08-30 12:07:48 | 43.21667 | 22.24253 | 115° | 46km/h | 15737m | 4.7m/s | -59.0°C | 3.3% | 0hPa | 0V | 00:00:00 | 00:00:00 | 00:00:00 | |
| LZ4TU-5 | 2026-08-30 12:06:11 | 43.21935 | 22.22956 | 109° | 38km/h | 15236m | 4.2m/s | -59.1°C | 5.1% | 0hPa | 0V | 00:00:00 | 00:00:00 | 00:00:00 | |
| LZ4TU-5 | 2026-08-30 12:06:06 | 43.21949 | 22.22895 | 122° | 37km/h | 15210m | 5.2m/s | -59.0°C | 5.1% | 0hPa | 0V | 00:00:00 | 00:00:00 | 00:00:00 | |
| LZ4TU-5 | 2026-08-30 12:04:23 | 43.22413 | 22.21653 | 113° | 37km/h | 14712m | 5.1m/s | -58.9°C | 0% | 0hPa | 0V | 00:00:00 | 00:00:00 | 00:00:00 | |
| LZ4TU-5 | 2026-08-30 12:04:18 | 43.22431 | 22.21595 | 111° | 37km/h | 14688m | 5.5m/s | -58.9°C | 7.7% | 0hPa | 0V | 00:00:00 | 00:00:00 | 00:00:00 | |
| LZ4TU-5 | 2026-08-30 12:02:29 | 43.22823 | 22.20162 | 112° | 49km/h | 14178m | 5.0m/s | -59.9°C | 12.0% | 0hPa | 0V | 00:00:00 | 00:00:00 | 00:00:00 | |
| LZ4TU-5 | 2026-08-30 12:02:24 | 43.22842 | 22.20096 | 108° | 51km/h | 14159m | 4.3m/s | -59.9°C | 12.1% | 0hPa | 0V | 00:00:00 | 00:00:00 | 00:00:00 | |
| LZ4TU-5 | 2026-08-30 12:00:30 | 43.23378 | 22.18392 | 116° | 64km/h | 13644m | 3.9m/s | -59.4°C | 14.2% | 0hPa | 0V | 00:00:00 | 00:00:00 | 00:00:00 | |
| LZ4TU-5 | 2026-08-30 12:00:26 | 43.23411 | 22.18297 | 120° | 62km/h | 13621m | 3.2m/s | -59.2°C | 14.1% | 0hPa | 0V | 00:00:00 | 00:00:00 | 00:00:00 | |
| LZ4TU-5 | 2026-08-30 12:00:20 | 43.23444 | 22.18197 | 115° | 71km/h | 13596m | 5.8m/s | -59.2°C | 14.1% | 0hPa | 0V | 00:00:00 | 00:00:00 | 00:00:00 | |
| LZ4TU-5 | 2026-08-30 11:58:31 | 43.23765 | 22.16305 | 110° | 53km/h | 13098m | 5.2m/s | -58.1°C | 20.4% | 0hPa | 0V | 00:00:00 | 00:00:00 | 00:00:00 | |
| LZ4TU-5 | 2026-08-30 11:56:48 | 43.24335 | 22.14788 | 113° | 49km/h | 12606m | 5.4m/s | -57.1°C | 25.5% | 0hPa | 0V | 00:00:00 | 00:00:00 | 00:00:00 | |
| LZ4TU-5 | 2026-08-30 11:56:44 | 43.24356 | 22.14722 | 122° | 55km/h | 12587m | 4.8m/s | -57.1°C | 25.4% | 0hPa | 0V | 00:00:00 | 00:00:00 | 00:00:00 | |
| LZ4TU-5 | 2026-08-30 11:55:00 | 43.24992 | 22.12994 | 122° | 51km/h | 12097m | 3.6m/s | -54.5°C | 29.4% | 0hPa | 0V | 00:00:00 | 00:00:00 | 00:00:00 | |
| LZ4TU-5 | 2026-08-30 11:54:55 | 43.25028 | 22.12918 | 117° | 57km/h | 12075m | 4.0m/s | -54.5°C | 29.6% | 0hPa | 0V | 00:00:00 | 00:00:00 | 00:00:00 | |
| LZ4TU-5 | 2026-08-30 11:53:12 | 43.25543 | 22.11245 | 111° | 47km/h | 11601m | 3.7m/s | -51.9°C | 35.5% | 0hPa | 0V | 00:00:00 | 00:00:00 | 00:00:00 | |
| LZ4TU-5 | 2026-08-30 11:53:07 | 43.25569 | 22.11160 | 111° | 58km/h | 11579m | 3.6m/s | -51.8°C | 35.7% | 0hPa | 0V | 00:00:00 | 00:00:00 | 00:00:00 | |
| LZ4TU-5 | 2026-08-30 11:51:25 | 43.25970 | 22.09475 | 118° | 40km/h | 11118m | 4.1m/s | -48.7°C | 43.3% | 0hPa | 0V | 00:00:00 | 00:00:00 | 00:00:00 | |
| LZ4TU-5 | 2026-08-30 11:49:14 | 43.26353 | 22.07745 | 101° | 38km/h | 10515m | 4.6m/s | -43.7°C | 38.0% | 0hPa | 0V | 00:00:00 | 00:00:00 | 00:00:00 | |
| LZ4TU-5 | 2026-08-30 11:49:10 | 43.26367 | 22.07690 | 112° | 40km/h | 10497m | 4.5m/s | -43.4°C | 38.1% | 0hPa | 0V | 00:00:00 | 00:00:00 | 00:00:00 | |
| LZ4TU-5 | 2026-08-30 11:47:06 | 43.26836 | 22.06018 | 115° | 40km/h | 9941m | 4.6m/s | -38.9°C | 38.5% | 0hPa | 0V | 00:00:00 | 00:00:00 | 00:00:00 | |
| LZ4TU-5 | 2026-08-30 11:47:01 | 43.26861 | 22.05963 | 114° | 46km/h | 9920m | 5.0m/s | -38.8°C | 37.8% | 0hPa | 0V | 00:00:00 | 00:00:00 | 00:00:00 | |
| LZ4TU-5 | 2026-08-30 11:45:22 | 43.27386 | 22.04647 | 126° | 47km/h | 9432m | 6.0m/s | -34.5°C | 32.0% | 0hPa | 0V | 00:00:00 | 00:00:00 | 00:00:00 | |
| LZ4TU-5 | 2026-08-30 11:45:18 | 43.27411 | 22.04594 | 125° | 44km/h | 9411m | 5.0m/s | -34.3°C | 0% | 0hPa | 0V | 00:00:00 | 00:00:00 | 00:00:00 | |
| LZ4TU-5 | 2026-08-30 11:43:39 | 43.28040 | 22.03329 | 141° | 37km/h | 8943m | 4.6m/s | -30.4°C | 29.3% | 0hPa | 0V | 00:00:00 | 00:00:00 | 00:00:00 | |
| LZ4TU-5 | 2026-08-30 11:43:34 | 43.28077 | 22.03267 | 121° | 44km/h | 8921m | 4.6m/s | -30.2°C | 29.3% | 0hPa | 0V | 00:00:00 | 00:00:00 | 00:00:00 | |
| LZ4TU-5 | 2026-08-30 11:41:55 | 43.28597 | 22.02016 | 127° | 49km/h | 8450m | 7.4m/s | -26.3°C | 28.8% | 0hPa | 0V | 00:00:00 | 00:00:00 | 00:00:00 | |
| LZ4TU-5 | 2026-08-30 11:40:13 | 43.29236 | 22.00828 | 109° | 47km/h | 7908m | 4.5m/s | -22.1°C | 19.9% | 0hPa | 0V | 00:00:00 | 00:00:00 | 00:00:00 | |
| LZ4TU-5 | 2026-08-30 11:40:08 | 43.29276 | 22.00772 | 158° | 44km/h | 7882m | 4.1m/s | -22.0°C | 22.2% | 0hPa | 0V | 00:00:00 | 00:00:00 | 00:00:00 | |
| LZ4TU-5 | 2026-08-30 11:38:31 | 43.29689 | 21.99665 | 82° | 27km/h | 7364m | 7.2m/s | -18.9°C | 37.1% | 0hPa | 0V | 00:00:00 | 00:00:00 | 00:00:00 | |
| LZ4TU-5 | 2026-08-30 11:38:26 | 43.29700 | 21.99587 | 120° | 51km/h | 7333m | 6.8m/s | -18.7°C | 36.5% | 0hPa | 0V | 00:00:00 | 00:00:00 | 00:00:00 | |
| LZ4TU-5 | 2026-08-30 11:36:49 | 43.30228 | 21.98334 | 143° | 51km/h | 6808m | 6.4m/s | -15.7°C | 41.9% | 0hPa | 0V | 00:00:00 | 00:00:00 | 00:00:00 | |
| LZ4TU-5 | 2026-08-30 11:36:44 | 43.30276 | 21.98280 | 119° | 27km/h | 6780m | 7.9m/s | -15.6°C | 0% | 0hPa | 0V | 00:00:00 | 00:00:00 | 00:00:00 | |
| LZ4TU-5 | 2026-08-30 11:35:07 | 43.30710 | 21.97135 | 89° | 29km/h | 6281m | 3.5m/s | -12.2°C | 39.5% | 0hPa | 0V | 00:00:00 | 00:00:00 | 00:00:00 | |
| LZ4TU-5 | 2026-08-30 11:33:41 | 43.30982 | 21.96075 | 106° | 26km/h | 5826m | 5.2m/s | -9.0°C | 42.0% | 0hPa | 0V | 00:00:00 | 00:00:00 | 00:00:00 | |
| LZ4TU-5 | 2026-08-30 11:33:36 | 43.31010 | 21.96027 | 109° | 37km/h | 5798m | 5.4m/s | -8.8°C | 42.7% | 0hPa | 0V | 00:00:00 | 00:00:00 | 00:00:00 | |
| LZ4TU-5 | 2026-08-30 11:33:31 | 43.31025 | 21.95972 | 134° | 47km/h | 5775m | 4.4m/s | -8.6°C | 43.4% | 0hPa | 0V | 00:00:00 | 00:00:00 | 00:00:00 | |
| LZ4TU-5 | 2026-08-30 11:32:18 | 43.31354 | 21.95209 | 117° | 55km/h | 5413m | 4.5m/s | -6.2°C | 0% | 0hPa | 0V | 00:00:00 | 00:00:00 | 00:00:00 | |
| LZ4TU-5 | 2026-08-30 11:32:13 | 43.31399 | 21.95145 | 131° | 31km/h | 5389m | 5.4m/s | -5.9°C | 34.1% | 0hPa | 0V | 00:00:00 | 00:00:00 | 00:00:00 | |
| LZ4TU-5 | 2026-08-30 11:30:59 | 43.31634 | 21.94455 | 102° | 49km/h | 5033m | 3.1m/s | -3.4°C | 28.5% | 0hPa | 0V | 00:00:00 | 00:00:00 | 00:00:00 | |
| LZ4TU-5 | 2026-08-30 11:30:54 | 43.31636 | 21.94415 | 52° | 5km/h | 5010m | 4.2m/s | -3.3°C | 29.0% | 0hPa | 0V | 00:00:00 | 00:00:00 | 00:00:00 | |
| LZ4TU-5 | 2026-08-30 11:30:49 | 43.31639 | 21.94373 | 109° | 33km/h | 4984m | 5.0m/s | -3.2°C | 29.7% | 0hPa | 0V | 00:00:00 | 00:00:00 | 00:00:00 | |
| LZ4TU-5 | 2026-08-30 11:29:37 | 43.31766 | 21.93773 | 144° | 26km/h | 4659m | 3.5m/s | -2.2°C | 21.0% | 0hPa | 0V | 00:00:00 | 00:00:00 | 00:00:00 | |
| LZ4TU-5 | 2026-08-30 11:29:31 | 43.31792 | 21.93739 | 119° | 37km/h | 4638m | 5.8m/s | -2.0°C | 20.2% | 0hPa | 0V | 00:00:00 | 00:00:00 | 00:00:00 | |
| LZ4TU-5 | 2026-08-30 11:28:17 | 43.31960 | 21.92822 | 137° | 35km/h | 4290m | 5.1m/s | -0.1°C | 19.0% | 0hPa | 0V | 00:00:00 | 00:00:00 | 00:00:00 | |
| LZ4TU-5 | 2026-08-30 11:28:14 | 43.31975 | 21.92790 | 91° | 16km/h | 4269m | 4.5m/s | 0.0°C | 0% | 0hPa | 0V | 00:00:00 | 00:00:00 | 00:00:00 | |
| LZ4TU-5 | 2026-08-30 11:27:01 | 43.32256 | 21.92312 | 139° | 38km/h | 3900m | 4.7m/s | 2.3°C | 21.9% | 0hPa | 0V | 00:00:00 | 00:00:00 | 00:00:00 | |
| LZ4TU-5 | 2026-08-30 11:26:56 | 43.32269 | 21.92276 | 58° | 16km/h | 3868m | 6.7m/s | 2.6°C | 21.7% | 0hPa | 0V | 00:00:00 | 00:00:00 | 00:00:00 | |
| LZ4TU-5 | 2026-08-30 11:25:43 | 43.32384 | 21.91753 | 123° | 37km/h | 3466m | 5.3m/s | 5.9°C | 21.4% | 0hPa | 0V | 00:00:00 | 00:00:00 | 00:00:00 | |
| LZ4TU-5 | 2026-08-30 11:25:39 | 43.32388 | 21.91736 | 30° | 16km/h | 3438m | 7.0m/s | 6.1°C | 20.2% | 0hPa | 0V | 00:00:00 | 00:00:00 | 00:00:00 |